sensor_id;sensor_type;location;lat;lon;timestamp;temperature;humidity
48328;DHT22;34136;51.022;7.082;2023-07-24T15:00:57;21.90;99.90
48328;DHT22;34136;51.022;7.082;2023-07-24T15:03:43;21.90;99.90
48328;DHT22;34136;51.022;7.082;2023-07-24T15:06:29;21.90;99.90
48328;DHT22;34136;51.022;7.082;2023-07-24T17:34:02;19.30;99.90
48328;DHT22;34136;51.022;7.082;2023-07-24T17:36:49;19.20;99.90
48328;DHT22;34136;51.022;7.082;2023-07-24T17:39:41;19.20;99.90
48328;DHT22;34136;51.022;7.082;2023-07-24T17:42:27;19.40;99.90
48328;DHT22;34136;51.022;7.082;2023-07-24T17:45:14;19.60;99.90
48328;DHT22;34136;51.022;7.082;2023-07-24T17:48:00;19.60;99.90
48328;DHT22;34136;51.022;7.082;2023-07-24T17:50:46;19.60;99.90
48328;DHT22;34136;51.022;7.082;2023-07-24T17:53:32;19.50;99.90
48328;DHT22;34136;51.022;7.082;2023-07-24T17:56:18;19.50;99.90
48328;DHT22;34136;51.022;7.082;2023-07-24T17:59:05;19.70;99.90
48328;DHT22;34136;51.022;7.082;2023-07-24T18:01:51;19.90;99.90
48328;DHT22;34136;51.022;7.082;2023-07-24T18:04:38;19.90;99.90
48328;DHT22;34136;51.022;7.082;2023-07-24T18:07:24;19.80;99.90
48328;DHT22;34136;51.022;7.082;2023-07-24T18:10:10;19.80;99.90
48328;DHT22;34136;51.022;7.082;2023-07-24T18:12:56;19.50;1.00
48328;DHT22;34136;51.022;7.082;2023-07-24T18:15:43;19.40;1.00
48328;DHT22;34136;51.022;7.082;2023-07-24T18:18:29;19.50;1.00
48328;DHT22;34136;51.022;7.082;2023-07-24T18:21:15;19.60;1.00
48328;DHT22;34136;51.022;7.082;2023-07-24T18:24:01;19.40;1.00
48328;DHT22;34136;51.022;7.082;2023-07-24T18:26:50;19.40;1.00
48328;DHT22;34136;51.022;7.082;2023-07-24T18:29:36;19.40;99.90
48328;DHT22;34136;51.022;7.082;2023-07-24T18:32:23;19.40;99.90
48328;DHT22;34136;51.022;7.082;2023-07-24T18:35:09;19.40;99.90
48328;DHT22;34136;51.022;7.082;2023-07-24T18:37:55;19.40;99.90
48328;DHT22;34136;51.022;7.082;2023-07-24T18:40:42;19.40;99.90
48328;DHT22;34136;51.022;7.082;2023-07-24T18:43:28;19.50;99.90
48328;DHT22;34136;51.022;7.082;2023-07-24T18:46:16;19.40;99.90
48328;DHT22;34136;51.022;7.082;2023-07-24T18:49:02;19.40;99.90
48328;DHT22;34136;51.022;7.082;2023-07-24T18:51:49;19.50;99.90
48328;DHT22;34136;51.022;7.082;2023-07-24T18:54:35;19.40;99.90
48328;DHT22;34136;51.022;7.082;2023-07-24T18:57:39;19.50;99.90
48328;DHT22;34136;51.022;7.082;2023-07-24T19:00:25;19.50;99.90
48328;DHT22;34136;51.022;7.082;2023-07-24T19:03:11;19.40;99.90
48328;DHT22;34136;51.022;7.082;2023-07-24T19:05:58;19.30;99.90
48328;DHT22;34136;51.022;7.082;2023-07-24T19:08:48;19.30;99.90
48328;DHT22;34136;51.022;7.082;2023-07-24T19:11:35;19.00;99.90
48328;DHT22;34136;51.022;7.082;2023-07-24T19:14:21;19.10;99.90
48328;DHT22;34136;51.022;7.082;2023-07-24T19:17:08;19.20;99.90
48328;DHT22;34136;51.022;7.082;2023-07-24T19:19:54;19.20;1.00
48328;DHT22;34136;51.022;7.082;2023-07-24T19:22:40;19.20;1.40
48328;DHT22;34136;51.022;7.082;2023-07-24T19:25:26;19.10;99.90
48328;DHT22;34136;51.022;7.082;2023-07-24T19:28:13;19.00;99.90
48328;DHT22;34136;51.022;7.082;2023-07-24T19:30:59;19.00;99.90
48328;DHT22;34136;51.022;7.082;2023-07-24T19:34:14;18.90;1.00
48328;DHT22;34136;51.022;7.082;2023-07-24T19:36:59;18.80;99.90
48328;DHT22;34136;51.022;7.082;2023-07-24T19:39:46;18.90;99.90
48328;DHT22;34136;51.022;7.082;2023-07-24T19:42:32;18.90;99.90
48328;DHT22;34136;51.022;7.082;2023-07-24T19:45:19;19.00;99.90
48328;DHT22;34136;51.022;7.082;2023-07-24T19:48:05;18.90;99.90
48328;DHT22;34136;51.022;7.082;2023-07-24T19:50:53;18.80;99.90
48328;DHT22;34136;51.022;7.082;2023-07-24T19:53:39;18.70;99.90
48328;DHT22;34136;51.022;7.082;2023-07-24T19:56:26;18.70;99.90
48328;DHT22;34136;51.022;7.082;2023-07-24T19:59:12;18.60;99.90
48328;DHT22;34136;51.022;7.082;2023-07-24T20:01:58;18.70;99.90
48328;DHT22;34136;51.022;7.082;2023-07-24T20:04:44;18.60;99.90
48328;DHT22;34136;51.022;7.082;2023-07-24T20:07:31;18.40;1.40
48328;DHT22;34136;51.022;7.082;2023-07-24T20:10:17;18.30;1.00
48328;DHT22;34136;51.022;7.082;2023-07-24T20:13:03;18.40;1.00
48328;DHT22;34136;51.022;7.082;2023-07-24T20:15:49;18.40;1.00
48328;DHT22;34136;51.022;7.082;2023-07-24T20:18:36;18.50;1.00
48328;DHT22;34136;51.022;7.082;2023-07-24T20:21:22;18.50;1.00
48328;DHT22;34136;51.022;7.082;2023-07-24T20:24:10;18.50;1.00
48328;DHT22;34136;51.022;7.082;2023-07-24T20:26:56;18.50;1.00
48328;DHT22;34136;51.022;7.082;2023-07-24T20:29:42;18.50;1.00
48328;DHT22;34136;51.022;7.082;2023-07-24T20:32:29;18.50;1.00
48328;DHT22;34136;51.022;7.082;2023-07-24T20:35:15;18.50;1.00
48328;DHT22;34136;51.022;7.082;2023-07-24T20:38:04;18.40;1.00
48328;DHT22;34136;51.022;7.082;2023-07-24T20:40:50;18.50;1.00
48328;DHT22;34136;51.022;7.082;2023-07-24T20:43:47;18.50;1.00
48328;DHT22;34136;51.022;7.082;2023-07-24T20:46:33;18.50;1.00
48328;DHT22;34136;51.022;7.082;2023-07-24T20:49:21;18.50;1.00
48328;DHT22;34136;51.022;7.082;2023-07-24T20:52:08;18.50;1.00
48328;DHT22;34136;51.022;7.082;2023-07-24T20:54:54;18.50;1.00
48328;DHT22;34136;51.022;7.082;2023-07-24T20:57:40;18.50;1.00
48328;DHT22;34136;51.022;7.082;2023-07-24T21:00:26;18.40;1.00
48328;DHT22;34136;51.022;7.082;2023-07-24T21:03:12;18.30;1.00
48328;DHT22;34136;51.022;7.082;2023-07-24T21:05:58;18.40;1.00
48328;DHT22;34136;51.022;7.082;2023-07-24T21:08:45;18.40;1.00
48328;DHT22;34136;51.022;7.082;2023-07-24T21:11:31;18.40;1.00
48328;DHT22;34136;51.022;7.082;2023-07-24T21:14:17;18.40;1.00
48328;DHT22;34136;51.022;7.082;2023-07-24T21:17:10;18.40;1.00
48328;DHT22;34136;51.022;7.082;2023-07-24T21:19:56;18.20;1.00
48328;DHT22;34136;51.022;7.082;2023-07-24T21:22:45;18.30;1.00
48328;DHT22;34136;51.022;7.082;2023-07-24T21:25:32;18.30;1.00
48328;DHT22;34136;51.022;7.082;2023-07-24T21:28:18;18.20;1.00
48328;DHT22;34136;51.022;7.082;2023-07-24T21:31:11;18.10;1.00
48328;DHT22;34136;51.022;7.082;2023-07-24T21:33:58;18.00;1.00
48328;DHT22;34136;51.022;7.082;2023-07-24T21:36:44;18.00;1.00
48328;DHT22;34136;51.022;7.082;2023-07-24T21:39:31;18.00;1.00
48328;DHT22;34136;51.022;7.082;2023-07-24T21:42:17;18.00;1.00
48328;DHT22;34136;51.022;7.082;2023-07-24T21:45:04;18.10;1.00
48328;DHT22;34136;51.022;7.082;2023-07-24T21:47:50;18.20;1.00
48328;DHT22;34136;51.022;7.082;2023-07-24T21:50:36;18.20;1.00
48328;DHT22;34136;51.022;7.082;2023-07-24T21:53:23;18.20;1.00
48328;DHT22;34136;51.022;7.082;2023-07-24T21:56:09;18.20;1.00
48328;DHT22;34136;51.022;7.082;2023-07-24T21:58:55;18.10;1.00
48328;DHT22;34136;51.022;7.082;2023-07-24T22:01:41;18.10;1.00
48328;DHT22;34136;51.022;7.082;2023-07-24T22:04:27;18.10;1.00
48328;DHT22;34136;51.022;7.082;2023-07-24T22:07:13;18.00;1.00
48328;DHT22;34136;51.022;7.082;2023-07-24T22:10:00;17.90;1.00
48328;DHT22;34136;51.022;7.082;2023-07-24T22:12:46;17.90;1.00
48328;DHT22;34136;51.022;7.082;2023-07-24T22:15:32;17.90;1.00
48328;DHT22;34136;51.022;7.082;2023-07-24T22:18:18;17.90;1.00
48328;DHT22;34136;51.022;7.082;2023-07-24T22:21:04;17.80;1.00
48328;DHT22;34136;51.022;7.082;2023-07-24T22:23:51;17.70;1.00
48328;DHT22;34136;51.022;7.082;2023-07-24T22:26:37;17.80;1.00
48328;DHT22;34136;51.022;7.082;2023-07-24T22:29:23;17.80;1.00
48328;DHT22;34136;51.022;7.082;2023-07-24T22:32:09;17.90;1.00
48328;DHT22;34136;51.022;7.082;2023-07-24T22:34:55;17.90;1.00
48328;DHT22;34136;51.022;7.082;2023-07-24T22:37:41;17.80;1.00
48328;DHT22;34136;51.022;7.082;2023-07-24T22:40:28;17.70;1.00
48328;DHT22;34136;51.022;7.082;2023-07-24T22:43:14;17.80;1.00
48328;DHT22;34136;51.022;7.082;2023-07-24T22:46:01;17.90;1.00
48328;DHT22;34136;51.022;7.082;2023-07-24T22:48:47;17.80;1.00
48328;DHT22;34136;51.022;7.082;2023-07-24T22:51:33;17.80;1.00
48328;DHT22;34136;51.022;7.082;2023-07-24T22:54:19;17.80;1.00
48328;DHT22;34136;51.022;7.082;2023-07-24T22:57:06;17.90;1.00
48328;DHT22;34136;51.022;7.082;2023-07-24T22:59:52;17.80;1.00
48328;DHT22;34136;51.022;7.082;2023-07-24T23:02:38;17.70;1.00
48328;DHT22;34136;51.022;7.082;2023-07-24T23:05:24;17.70;1.00
48328;DHT22;34136;51.022;7.082;2023-07-24T23:08:10;17.70;1.00
48328;DHT22;34136;51.022;7.082;2023-07-24T23:10:56;17.80;1.00
48328;DHT22;34136;51.022;7.082;2023-07-24T23:13:42;17.80;1.00
48328;DHT22;34136;51.022;7.082;2023-07-24T23:16:28;17.80;1.00
48328;DHT22;34136;51.022;7.082;2023-07-24T23:19:15;17.80;1.00
48328;DHT22;34136;51.022;7.082;2023-07-24T23:22:01;17.80;1.00
48328;DHT22;34136;51.022;7.082;2023-07-24T23:24:47;17.80;1.00
48328;DHT22;34136;51.022;7.082;2023-07-24T23:27:33;17.80;1.00
48328;DHT22;34136;51.022;7.082;2023-07-24T23:30:19;17.80;1.00
48328;DHT22;34136;51.022;7.082;2023-07-24T23:33:05;17.60;1.00
48328;DHT22;34136;51.022;7.082;2023-07-24T23:35:51;17.60;1.00
48328;DHT22;34136;51.022;7.082;2023-07-24T23:38:38;17.50;1.00
48328;DHT22;34136;51.022;7.082;2023-07-24T23:41:24;17.50;1.00
48328;DHT22;34136;51.022;7.082;2023-07-24T23:44:11;17.50;1.00
48328;DHT22;34136;51.022;7.082;2023-07-24T23:46:57;17.40;1.00
48328;DHT22;34136;51.022;7.082;2023-07-24T23:49:49;17.40;1.00
48328;DHT22;34136;51.022;7.082;2023-07-24T23:52:35;17.40;1.00
48328;DHT22;34136;51.022;7.082;2023-07-24T23:55:22;17.30;1.00
48328;DHT22;34136;51.022;7.082;2023-07-24T23:58:08;17.20;1.00
